Time;durP1;ratioP1;P1;durP2;ratioP2;P2;SDS_P1;SDS_P2;PMS_P1;PMS_P2;Temp;Humidity;BMP_temperature;BMP_pressure;BME280_temperature;BME280_humidity;BME280_pressure;Samples;Min_cycle;Max_cycle;Signal;HPM_P1;HPM_P2
2023/10/21 00:01:41;;;;;;;0.30;0.30;;;11.00;1.00;;;;;;4948220;28;20227;-70
2023/10/21 00:04:08;;;;;;;0.30;0.30;;;11.00;1.00;;;;;;4950846;29;20282;-70
2023/10/21 00:06:35;;;;;;;0.30;0.30;;;11.00;1.00;;;;;;4949958;29;20206;-70
2023/10/21 00:09:02;;;;;;;0.20;0.20;;;11.00;1.00;;;;;;4949164;29;20191;-70
2023/10/21 00:11:29;;;;;;;0.30;0.30;;;11.00;1.00;;;;;;4951271;29;20211;-70
2023/10/21 00:13:57;;;;;;;0.30;0.30;;;11.00;1.00;;;;;;4949038;29;20656;-70
2023/10/21 00:16:24;;;;;;;0.30;0.30;;;10.90;1.00;;;;;;4947449;28;20724;-69
2023/10/21 00:18:51;;;;;;;0.30;0.30;;;11.00;1.00;;;;;;4949028;29;20612;-70
2023/10/21 00:21:19;;;;;;;0.30;0.30;;;10.90;1.00;;;;;;4947920;29;20195;-70
2023/10/21 00:23:46;;;;;;;0.30;0.30;;;11.00;1.00;;;;;;4949057;29;20199;-69
2023/10/21 00:26:13;;;;;;;0.30;0.30;;;11.00;1.00;;;;;;4949637;28;20234;-69
2023/10/21 00:28:43;;;;;;;0.30;0.30;;;10.90;1.00;;;;;;4948098;28;20241;-70
2023/10/21 00:31:10;;;;;;;0.30;0.30;;;11.00;1.00;;;;;;4916541;29;20218;-70
2023/10/21 00:33:37;;;;;;;0.30;0.30;;;11.00;1.00;;;;;;4951465;28;20313;-70
2023/10/21 00:36:05;;;;;;;0.30;0.30;;;10.90;1.00;;;;;;4950902;29;20552;-70
2023/10/21 00:38:32;;;;;;;0.30;0.30;;;11.00;1.00;;;;;;4947547;28;20218;-74
2023/10/21 00:40:59;;;;;;;0.30;0.30;;;11.00;1.00;;;;;;4949230;29;20733;-74
2023/10/21 00:43:40;;;;;;;0.30;0.30;;;11.00;1.00;;;;;;4933945;29;20214;-74
2023/10/21 00:46:13;;;;;;;0.30;0.30;;;10.90;1.00;;;;;;4929722;29;20226;-73
2023/10/21 00:48:41;;;;;;;0.30;0.30;;;10.90;1.00;;;;;;4948413;28;20231;-75
2023/10/21 00:51:09;;;;;;;0.30;0.30;;;10.90;1.00;;;;;;4954397;28;20395;-75
2023/10/21 00:53:37;;;;;;;0.30;0.30;;;10.90;1.00;;;;;;4951574;28;20183;-75
2023/10/21 00:56:06;;;;;;;0.40;0.40;;;11.00;1.00;;;;;;4952554;29;20778;-76
2023/10/21 00:58:34;;;;;;;0.30;0.30;;;11.00;1.00;;;;;;4954155;29;20270;-74
2023/10/21 01:01:06;;;;;;;0.30;0.30;;;11.00;99.90;;;;;;4954101;29;20195;-74
2023/10/21 01:03:35;;;;;;;0.30;0.30;;;10.90;99.90;;;;;;4957599;28;20290;-75
2023/10/21 01:06:03;;;;;;;0.30;0.30;;;10.90;99.90;;;;;;4958686;28;20281;-74
2023/10/21 01:08:30;;;;;;;0.20;0.20;;;10.90;99.90;;;;;;4955643;28;20968;-73
2023/10/21 01:10:58;;;;;;;0.30;0.30;;;10.90;99.90;;;;;;4952495;29;20722;-73
2023/10/21 01:13:26;;;;;;;0.40;0.40;;;10.90;99.90;;;;;;4952447;29;20656;-74
2023/10/21 01:15:55;;;;;;;0.30;0.30;;;10.90;99.90;;;;;;4950022;29;20636;-76
2023/10/21 01:18:24;;;;;;;0.20;0.20;;;10.90;99.90;;;;;;4952067;29;20191;-74
2023/10/21 01:20:52;;;;;;;0.30;0.30;;;10.80;99.90;;;;;;4935778;29;20230;-74
2023/10/21 01:23:19;;;;;;;0.33;0.33;;;10.90;99.90;;;;;;4933276;29;20183;-74
2023/10/21 01:25:46;;;;;;;0.30;0.30;;;10.90;98.50;;;;;;4950798;29;20191;-74
2023/10/21 01:28:14;;;;;;;0.30;0.30;;;10.80;56.50;;;;;;4952055;28;20214;-74
2023/10/21 01:30:41;;;;;;;0.40;0.40;;;10.90;22.30;;;;;;4953548;29;20286;-74
2023/10/21 01:33:08;;;;;;;0.30;0.30;;;10.80;12.50;;;;;;4952795;29;20218;-74
2023/10/21 01:35:35;;;;;;;0.30;0.30;;;10.90;1.00;;;;;;4951113;28;20207;-74
2023/10/21 01:38:03;;;;;;;0.40;0.40;;;10.90;1.00;;;;;;4916646;29;20302;-73
2023/10/21 01:40:30;;;;;;;0.40;0.40;;;10.90;1.00;;;;;;4957240;28;20213;-74
2023/10/21 01:42:57;;;;;;;0.37;0.37;;;10.90;1.00;;;;;;4953937;29;20644;-76
2023/10/21 01:45:24;;;;;;;0.30;0.30;;;11.00;1.00;;;;;;4952882;29;20342;-73
2023/10/21 01:47:51;;;;;;;0.30;0.30;;;11.00;1.00;;;;;;4952903;29;20310;-70
2023/10/21 01:50:18;;;;;;;0.20;0.20;;;11.00;1.00;;;;;;4953372;29;20298;-71
2023/10/21 01:52:45;;;;;;;0.30;0.30;;;11.00;1.00;;;;;;4949969;28;20217;-67
2023/10/21 01:55:12;;;;;;;0.40;0.40;;;11.00;1.00;;;;;;4951725;28;20727;-67
2023/10/21 01:57:40;;;;;;;0.30;0.30;;;11.00;1.00;;;;;;4960465;28;20202;-73
2023/10/21 02:00:11;;;;;;;0.30;0.30;;;11.00;1.00;;;;;;4950504;29;20206;-74
2023/10/21 02:06:20;;;;;;;0.30;0.30;;;11.00;1.00;;;;;;4953892;28;20261;-74
2023/10/21 02:08:47;;;;;;;0.30;0.30;;;11.10;1.00;;;;;;4921299;29;20692;-74
2023/10/21 02:11:19;;;;;;;0.30;0.30;;;11.10;1.00;;;;;;4951964;29;20210;-75
2023/10/21 02:13:46;;;;;;;0.30;0.30;;;11.20;1.00;;;;;;4952125;28;20199;-74
2023/10/21 02:16:13;;;;;;;0.30;0.30;;;11.20;1.00;;;;;;4951642;28;20285;-74
2023/10/21 02:18:40;;;;;;;0.27;0.27;;;11.20;1.00;;;;;;4950571;28;20187;-75
2023/10/21 02:21:07;;;;;;;0.30;0.30;;;11.20;1.00;;;;;;4951359;28;20254;-75
2023/10/21 02:23:35;;;;;;;0.20;0.20;;;11.20;1.00;;;;;;4951975;29;20187;-74
2023/10/21 02:26:07;;;;;;;0.20;0.20;;;11.20;1.00;;;;;;4935466;29;20680;-74
2023/10/21 02:28:34;;;;;;;0.30;0.30;;;11.20;1.00;;;;;;4951982;29;20682;-74
2023/10/21 02:31:04;;;;;;;0.30;0.30;;;11.20;1.00;;;;;;4953727;28;20190;-74
2023/10/21 02:33:31;;;;;;;0.30;0.30;;;11.30;1.00;;;;;;4951823;29;20226;-74
2023/10/21 02:35:58;;;;;;;0.43;0.43;;;11.20;1.00;;;;;;4951619;29;20203;-74
2023/10/21 02:38:25;;;;;;;0.30;0.30;;;11.30;99.90;;;;;;4951309;29;20380;-75
2023/10/21 02:40:52;;;;;;;0.30;0.30;;;11.30;99.90;;;;;;4949668;29;20797;-74
2023/10/21 02:43:22;;;;;;;0.20;0.20;;;11.30;99.90;;;;;;4949612;29;20206;-74
2023/10/21 02:45:49;;;;;;;0.20;0.20;;;11.30;99.90;;;;;;4951357;28;20725;-75
2023/10/21 02:48:16;;;;;;;0.20;0.20;;;11.30;99.90;;;;;;4945033;28;20211;-75
2023/10/21 02:50:43;;;;;;;0.30;0.30;;;11.30;99.90;;;;;;4935091;29;20269;-75
2023/10/21 02:53:10;;;;;;;0.23;0.23;;;11.30;99.90;;;;;;4951282;29;20727;-72
2023/10/21 02:55:37;;;;;;;0.30;0.30;;;11.30;99.90;;;;;;4952043;29;20206;-74
2023/10/21 02:58:05;;;;;;;0.33;0.33;;;11.40;99.90;;;;;;4950091;28;20206;-69
2023/10/21 03:00:32;;;;;;;0.30;0.30;;;11.40;99.90;;;;;;4951260;28;20648;-70
2023/10/21 03:02:59;;;;;;;0.20;0.20;;;11.40;99.90;;;;;;4937992;29;20648;-69
2023/10/21 03:05:26;;;;;;;0.40;0.40;;;11.30;1.00;;;;;;4954202;28;20639;-70
2023/10/21 03:07:53;;;;;;;0.30;0.30;;;11.40;1.00;;;;;;4947478;29;20191;-70
2023/10/21 03:10:22;;;;;;;0.30;0.30;;;11.40;1.00;;;;;;4933885;29;20250;-70
2023/10/21 03:12:50;;;;;;;0.20;0.20;;;11.40;1.00;;;;;;4951470;29;20254;-70
2023/10/21 03:15:17;;;;;;;0.30;0.30;;;11.40;1.00;;;;;;4943408;28;20690;-67
2023/10/21 03:17:45;;;;;;;0.30;0.30;;;11.40;1.00;;;;;;4951995;29;20219;-67
2023/10/21 03:20:15;;;;;;;0.30;0.30;;;11.40;1.00;;;;;;4933863;29;20291;-68
2023/10/21 03:22:43;;;;;;;0.30;0.30;;;11.40;1.00;;;;;;4951009;28;20266;-68
2023/10/21 03:25:11;;;;;;;0.30;0.30;;;11.40;1.00;;;;;;4948854;29;20203;-69
2023/10/21 03:27:38;;;;;;;0.30;0.30;;;11.40;1.00;;;;;;4950697;29;20241;-70
2023/10/21 03:30:07;;;;;;;0.30;0.30;;;11.40;1.00;;;;;;4950231;28;20207;-70
2023/10/21 03:32:34;;;;;;;0.30;0.30;;;11.40;30.30;;;;;;4949025;28;20615;-71
2023/10/21 03:35:01;;;;;;;0.30;0.30;;;11.40;51.30;;;;;;4950235;29;20270;-70
2023/10/21 03:37:28;;;;;;;1.10;1.10;;;11.40;88.80;;;;;;4934348;29;20202;-70
2023/10/21 03:39:55;;;;;;;0.30;0.30;;;11.50;99.90;;;;;;4950341;28;20346;-70
2023/10/21 03:42:22;;;;;;;0.30;0.30;;;11.50;99.90;;;;;;4934064;29;20703;-67
2023/10/21 03:44:49;;;;;;;0.30;0.30;;;11.40;99.90;;;;;;4941293;29;20234;-67
2023/10/21 03:47:17;;;;;;;0.30;0.30;;;11.50;99.90;;;;;;4951356;29;20195;-69
2023/10/21 03:49:44;;;;;;;0.30;0.30;;;11.50;99.90;;;;;;4950752;29;20651;-70
2023/10/21 03:52:11;;;;;;;0.30;0.30;;;11.50;99.90;;;;;;4948690;29;20219;-69
2023/10/21 03:54:38;;;;;;;0.30;0.30;;;11.50;99.90;;;;;;4951354;29;20647;-69
2023/10/21 03:57:06;;;;;;;0.30;0.30;;;11.50;99.90;;;;;;4958156;28;20190;-70
2023/10/21 03:59:33;;;;;;;0.30;0.30;;;11.50;99.90;;;;;;4949183;29;20187;-70
2023/10/21 04:02:00;;;;;;;0.30;0.30;;;11.60;99.90;;;;;;4950214;29;20270;-70
2023/10/21 04:04:27;;;;;;;0.30;0.30;;;11.60;99.90;;;;;;4935763;29;20257;-70
2023/10/21 04:06:54;;;;;;;0.30;0.30;;;11.60;99.90;;;;;;4949785;29;20191;-70
2023/10/21 04:09:22;;;;;;;0.20;0.20;;;11.60;99.90;;;;;;4949513;29;20194;-69
2023/10/21 04:11:49;;;;;;;0.30;0.30;;;11.70;99.90;;;;;;4950009;29;20754;-69
2023/10/21 04:14:16;;;;;;;0.30;0.30;;;11.70;99.90;;;;;;4950978;28;20191;-69
2023/10/21 04:16:44;;;;;;;0.30;0.30;;;11.60;99.90;;;;;;4949676;28;20250;-69
2023/10/21 04:19:12;;;;;;;0.30;0.30;;;11.60;99.90;;;;;;4949377;29;20612;-69
2023/10/21 04:21:39;;;;;;;0.30;0.30;;;11.70;99.90;;;;;;4949008;29;20238;-69
2023/10/21 04:24:06;;;;;;;0.20;0.20;;;11.60;99.90;;;;;;4951230;29;20194;-70
2023/10/21 04:26:34;;;;;;;0.20;0.20;;;11.70;99.90;;;;;;4949964;29;20199;-70
2023/10/21 04:29:01;;;;;;;0.30;0.30;;;11.70;99.90;;;;;;4949464;29;20206;-69
2023/10/21 04:31:34;;;;;;;0.20;0.20;;;11.70;1.00;;;;;;4953577;28;20528;-69
2023/10/21 04:34:01;;;;;;;0.30;0.30;;;11.70;74.70;;;;;;4933652;29;20227;-70
2023/10/21 04:36:28;;;;;;;0.30;0.30;;;11.70;90.90;;;;;;4950785;29;20218;-70
2023/10/21 04:38:55;;;;;;;0.30;0.30;;;11.70;89.90;;;;;;4948844;29;20306;-70
2023/10/21 04:41:22;;;;;;;0.30;0.30;;;11.70;91.70;;;;;;4950516;29;20662;-70
2023/10/21 04:43:50;;;;;;;0.30;0.30;;;11.80;93.70;;;;;;4950218;29;20211;-70
2023/10/21 04:46:17;;;;;;;0.30;0.30;;;11.80;99.90;;;;;;4933360;29;20246;-70
2023/10/21 04:48:44;;;;;;;0.30;0.30;;;11.80;99.90;;;;;;4944349;28;20324;-71
2023/10/21 04:51:11;;;;;;;0.20;0.20;;;11.80;99.90;;;;;;4951583;29;20195;-70
2023/10/21 04:53:38;;;;;;;0.30;0.30;;;11.80;99.90;;;;;;4950890;29;20679;-70
2023/10/21 04:56:05;;;;;;;0.30;0.30;;;11.80;99.90;;;;;;4933222;29;20230;-70
2023/10/21 04:58:32;;;;;;;0.30;0.30;;;11.80;99.90;;;;;;4932988;29;20221;-70
2023/10/21 05:00:59;;;;;;;0.30;0.30;;;11.80;99.90;;;;;;4951460;29;20246;-70
2023/10/21 05:03:26;;;;;;;0.20;0.20;;;11.80;99.90;;;;;;4949206;29;20210;-71
2023/10/21 05:05:54;;;;;;;0.30;0.30;;;11.80;99.90;;;;;;4957537;28;20667;-69
2023/10/21 05:08:21;;;;;;;0.30;0.30;;;11.90;99.90;;;;;;4949863;29;20195;-68
2023/10/21 05:10:48;;;;;;;0.37;0.37;;;11.80;99.90;;;;;;4929297;29;20211;-69
2023/10/21 05:13:16;;;;;;;0.30;0.30;;;11.80;99.90;;;;;;4933170;29;20219;-68
2023/10/21 05:15:44;;;;;;;0.30;0.30;;;11.80;99.90;;;;;;4950025;29;20235;-69
2023/10/21 05:18:11;;;;;;;0.30;0.30;;;11.80;99.90;;;;;;4947995;28;20199;-74
2023/10/21 05:20:38;;;;;;;0.30;0.30;;;11.80;99.90;;;;;;4949197;28;20191;-74
2023/10/21 05:23:05;;;;;;;0.30;0.30;;;11.80;99.90;;;;;;4945713;29;20206;-73
2023/10/21 05:25:32;;;;;;;0.20;0.20;;;11.90;99.90;;;;;;4948900;29;20229;-73
2023/10/21 05:27:58;;;;;;;0.30;0.30;;;12.00;99.90;;;;;;4949227;29;20202;-68
2023/10/21 05:30:25;;;;;;;0.30;0.30;;;12.00;99.90;;;;;;4948402;29;20195;-68
2023/10/21 05:32:52;;;;;;;0.30;0.30;;;12.00;99.90;;;;;;4948306;29;20815;-68
2023/10/21 05:35:21;;;;;;;0.23;0.23;;;12.00;99.90;;;;;;4946734;29;20192;-69
2023/10/21 05:37:48;;;;;;;0.20;0.20;;;12.10;99.90;;;;;;4950669;28;20200;-69
2023/10/21 05:40:15;;;;;;;0.30;0.30;;;12.10;99.90;;;;;;4950145;28;20270;-69
2023/10/21 05:42:42;;;;;;;0.20;0.20;;;12.10;1.00;;;;;;4936427;29;20354;-68
2023/10/21 05:45:09;;;;;;;0.30;0.30;;;12.20;1.00;;;;;;4950669;29;20639;-70
2023/10/21 05:47:37;;;;;;;0.30;0.30;;;12.20;1.00;;;;;;4951096;29;20856;-70
2023/10/21 05:50:04;;;;;;;0.30;0.30;;;12.20;1.00;;;;;;4952127;29;20652;-69
2023/10/21 05:52:31;;;;;;;0.30;0.30;;;12.20;1.00;;;;;;4935163;29;20215;-68
2023/10/21 05:55:01;;;;;;;0.30;0.30;;;12.20;99.90;;;;;;4955261;28;20194;-69
2023/10/21 05:57:28;;;;;;;0.30;0.30;;;12.30;99.90;;;;;;4950113;28;20210;-72
2023/10/21 05:59:55;;;;;;;0.27;0.27;;;12.30;99.90;;;;;;4949895;29;20210;-68
2023/10/21 06:02:22;;;;;;;0.20;0.20;;;12.40;99.90;;;;;;4933419;29;20536;-68
2023/10/21 06:04:49;;;;;;;0.20;0.20;;;12.40;99.90;;;;;;4950887;29;20276;-68
2023/10/21 06:07:16;;;;;;;0.30;0.30;;;12.40;99.90;;;;;;4950264;28;20199;-68
2023/10/21 06:09:43;;;;;;;0.30;0.30;;;12.40;99.90;;;;;;4950678;29;20203;-68
2023/10/21 06:12:10;;;;;;;0.27;0.27;;;12.40;1.00;;;;;;4950995;28;20930;-68
2023/10/21 06:14:38;;;;;;;0.20;0.20;;;12.40;1.00;;;;;;4951089;28;20195;-67
2023/10/21 06:17:05;;;;;;;0.20;0.20;;;12.40;1.00;;;;;;4909809;28;1123730;-69
2023/10/21 06:19:32;;;;;;;0.20;0.20;;;12.40;1.00;;;;;;4932663;28;20211;-70
2023/10/21 06:21:59;;;;;;;0.20;0.20;;;12.50;1.00;;;;;;4946229;29;20196;-71
2023/10/21 06:24:26;;;;;;;0.30;0.30;;;12.60;1.00;;;;;;4947124;28;20480;-68
2023/10/21 06:26:53;;;;;;;0.30;0.30;;;12.60;1.00;;;;;;4931446;28;20291;-69
2023/10/21 06:29:23;;;;;;;0.20;0.20;;;12.70;1.00;;;;;;4929634;29;20663;-75
2023/10/21 06:31:50;;;;;;;0.30;0.30;;;12.80;1.00;;;;;;4934382;29;20195;-77
2023/10/21 06:34:18;;;;;;;0.20;0.20;;;12.80;1.00;;;;;;4949153;28;20211;-78
2023/10/21 06:36:45;;;;;;;0.13;0.13;;;12.90;1.00;;;;;;4950919;28;20196;-79
2023/10/21 06:39:12;;;;;;;0.30;0.30;;;12.90;1.00;;;;;;4935042;29;20247;-71
2023/10/21 06:41:39;;;;;;;1.43;1.33;;;13.00;1.00;;;;;;4933228;29;20187;-72
2023/10/21 06:44:06;;;;;;;0.20;0.20;;;13.00;1.00;;;;;;4932485;29;20211;-71
2023/10/21 06:46:34;;;;;;;0.20;0.20;;;13.00;1.00;;;;;;4952585;28;20220;-72
2023/10/21 06:49:03;;;;;;;0.30;0.30;;;13.00;1.00;;;;;;4947300;28;20199;-71
2023/10/21 06:51:30;;;;;;;0.20;0.20;;;13.00;1.00;;;;;;4944779;28;20274;-71
2023/10/21 06:53:57;;;;;;;0.23;0.23;;;13.10;1.00;;;;;;4930403;29;20266;-72
2023/10/21 06:56:24;;;;;;;0.30;0.30;;;13.10;1.00;;;;;;4930917;29;20198;-72
2023/10/21 06:58:52;;;;;;;0.20;0.20;;;13.10;1.00;;;;;;4928279;29;20199;-71
2023/10/21 07:01:19;;;;;;;0.20;0.20;;;13.20;99.90;;;;;;4945571;28;20299;-72
2023/10/21 07:03:46;;;;;;;0.20;0.20;;;13.10;99.90;;;;;;4941714;28;20679;-71
2023/10/21 07:06:16;;;;;;;0.20;0.20;;;13.10;99.90;;;;;;4929707;29;20584;-72
2023/10/21 07:08:43;;;;;;;0.30;0.30;;;13.10;99.90;;;;;;4934535;29;20223;-72
2023/10/21 07:11:10;;;;;;;0.20;0.20;;;13.20;99.90;;;;;;4944631;29;20204;-71
2023/10/21 07:13:39;;;;;;;0.20;0.20;;;13.30;99.90;;;;;;4946606;29;20294;-71
2023/10/21 07:16:12;;;;;;;0.30;0.30;;;13.30;99.90;;;;;;4936875;29;20703;-71
2023/10/21 07:18:39;;;;;;;0.20;0.20;;;13.30;99.90;;;;;;4944574;28;20272;-71
2023/10/21 07:21:09;;;;;;;0.20;0.20;;;13.30;99.90;;;;;;4950049;28;20209;-71
2023/10/21 07:23:36;;;;;;;0.20;0.20;;;13.30;99.90;;;;;;4948499;28;20800;-71
2023/10/21 07:26:03;;;;;;;0.20;0.20;;;13.40;99.90;;;;;;4947082;28;20231;-71
2023/10/21 07:28:33;;;;;;;0.20;0.20;;;13.40;35.30;;;;;;4950115;28;20684;-71
2023/10/21 07:31:00;;;;;;;0.20;0.20;;;13.50;1.00;;;;;;4934200;29;20417;-71
2023/10/21 07:33:28;;;;;;;0.20;0.20;;;13.70;1.00;;;;;;4933309;29;20223;-70
2023/10/21 07:35:55;;;;;;;0.20;0.20;;;13.70;1.00;;;;;;4938031;28;20682;-73
2023/10/21 07:38:22;;;;;;;0.20;0.20;;;13.80;53.50;;;;;;4953215;28;20206;-77
2023/10/21 07:40:50;;;;;;;0.20;0.20;;;13.70;99.90;;;;;;4949919;28;20223;-78
2023/10/21 07:43:17;;;;;;;0.30;0.30;;;13.70;1.00;;;;;;4942768;28;20198;-78
2023/10/21 07:45:46;;;;;;;0.30;0.30;;;13.80;99.90;;;;;;4949418;28;20751;-78
2023/10/21 07:48:13;;;;;;;0.20;0.20;;;13.80;99.90;;;;;;4948017;28;20301;-71
2023/10/21 07:50:41;;;;;;;0.20;0.20;;;13.70;10.00;;;;;;4949127;28;20218;-74
2023/10/21 07:53:08;;;;;;;0.20;0.20;;;13.80;44.80;;;;;;4951140;28;20247;-74
2023/10/21 07:55:35;;;;;;;0.20;0.20;;;13.80;1.00;;;;;;4950643;28;20293;-74
2023/10/21 07:58:03;;;;;;;0.20;0.20;;;13.80;99.90;;;;;;4949615;28;20651;-74
2023/10/21 08:00:30;;;;;;;0.28;0.28;;;13.80;99.90;;;;;;4950851;28;20183;-75
2023/10/21 08:02:58;;;;;;;0.20;0.20;;;13.90;99.90;;;;;;4949929;28;20324;-75
2023/10/21 08:05:27;;;;;;;0.30;0.30;;;14.10;99.90;;;;;;4950357;28;20207;-75
2023/10/21 08:07:55;;;;;;;0.20;0.20;;;14.40;1.00;;;;;;4950324;28;20209;-75
2023/10/21 08:10:22;;;;;;;1.38;1.27;;;14.50;99.90;;;;;;4951965;28;20217;-75
2023/10/21 08:12:49;;;;;;;0.20;0.20;;;14.70;99.90;;;;;;4955188;28;20229;-74
2023/10/21 08:15:16;;;;;;;0.22;0.22;;;15.10;50.90;;;;;;4934916;29;20203;-75
2023/10/21 08:17:43;;;;;;;0.30;0.30;;;15.30;1.00;;;;;;4954058;29;20214;-75
2023/10/21 08:20:10;;;;;;;0.30;0.30;;;15.40;1.00;;;;;;4952213;28;20237;-75
2023/10/21 08:22:37;;;;;;;0.28;0.28;;;15.50;1.00;;;;;;4954523;29;20610;-75
2023/10/21 08:25:06;;;;;;;0.20;0.20;;;15.60;1.00;;;;;;4947175;28;20207;-74
2023/10/21 08:27:36;;;;;;;0.20;0.20;;;15.70;1.00;;;;;;4948377;28;20195;-75
2023/10/21 08:30:09;;;;;;;0.30;0.30;;;15.80;1.00;;;;;;4948340;29;20240;-74
2023/10/21 08:32:37;;;;;;;0.30;0.30;;;16.10;1.00;;;;;;4947702;28;20282;-74
2023/10/21 08:35:04;;;;;;;0.30;0.30;;;16.40;1.00;;;;;;4943329;28;20234;-74
2023/10/21 08:37:31;;;;;;;0.40;0.40;;;16.60;1.00;;;;;;4950120;28;20273;-74
2023/10/21 08:39:59;;;;;;;0.40;0.40;;;16.80;1.00;;;;;;4950271;28;20199;-73
2023/10/21 08:42:26;;;;;;;0.40;0.40;;;16.90;1.00;;;;;;4939870;29;20199;-74
2023/10/21 08:45:15;;;;;;;0.40;0.40;;;16.70;1.00;;;;;;4948901;28;20296;-74
2023/10/21 08:47:44;;;;;;;0.50;0.50;;;16.90;1.00;;;;;;4952664;28;20198;-73
2023/10/21 08:50:13;;;;;;;0.60;0.60;;;18.20;1.00;;;;;;4948598;29;20682;-73
2023/10/21 08:52:41;;;;;;;0.70;0.70;;;22.00;99.90;;;;;;4950604;28;20198;-74
2023/10/21 08:55:09;;;;;;;1.00;1.00;;;25.10;99.90;;;;;;4949338;28;20218;-74
2023/10/21 08:57:36;;;;;;;0.90;0.90;;;24.60;99.90;;;;;;4948777;28;20205;-81
2023/10/21 09:00:05;;;;;;;1.00;1.00;;;25.80;99.90;;;;;;4950683;28;20649;-83
2023/10/21 09:02:32;;;;;;;1.10;1.10;;;24.10;99.90;;;;;;4960227;28;20211;-77
2023/10/21 09:04:59;;;;;;;1.00;1.00;;;23.60;99.90;;;;;;4963741;28;20227;-77
2023/10/21 09:07:44;;;;;;;0.90;0.90;;;22.10;99.90;;;;;;4972722;28;20302;-76
2023/10/21 09:10:14;;;;;;;0.90;0.90;;;20.80;99.90;;;;;;4963396;28;20199;-76
2023/10/21 09:12:41;;;;;;;0.90;0.90;;;19.20;99.90;;;;;;4967847;28;20168;-81
2023/10/21 09:15:09;;;;;;;1.00;1.00;;;21.80;99.90;;;;;;4972714;28;20272;-80
2023/10/21 09:17:44;;;;;;;1.10;1.10;;;21.60;99.90;;;;;;4975328;28;20691;-76
2023/10/21 09:20:15;;;;;;;1.00;1.00;;;19.70;99.90;;;;;;4959706;28;20198;-80
2023/10/21 09:22:55;;;;;;;1.00;1.00;;;21.00;99.90;;;;;;4976044;28;20191;-78
2023/10/21 09:25:22;;;;;;;1.02;1.02;;;24.10;99.90;;;;;;4959177;28;20712;-84
2023/10/21 09:27:55;;;;;;;1.00;1.00;;;24.60;99.90;;;;;;4963914;28;20258;-85
2023/10/21 09:30:27;;;;;;;0.90;0.90;;;25.20;99.90;;;;;;4958727;29;20322;-85
2023/10/21 09:33:03;;;;;;;1.00;1.00;;;22.70;99.90;;;;;;4964888;28;20250;-75
2023/10/21 09:35:32;;;;;;;1.00;1.00;;;20.80;99.90;;;;;;4972055;28;20190;-77
2023/10/21 09:38:16;;;;;;;1.10;1.10;;;19.10;99.90;;;;;;4976889;28;20203;-76
2023/10/21 09:40:45;;;;;;;0.98;0.98;;;18.00;99.90;;;;;;4974882;28;20214;-74
2023/10/21 09:43:13;;;;;;;1.00;1.00;;;17.20;99.90;;;;;;4977169;29;20254;-77
2023/10/21 09:45:45;;;;;;;0.90;0.90;;;16.80;99.90;;;;;;4975476;28;20223;-75
2023/10/21 09:48:14;;;;;;;0.98;0.98;;;16.50;99.90;;;;;;4977784;28;20198;-74
2023/10/21 09:50:53;;;;;;;0.90;0.90;;;16.50;99.90;;;;;;4958959;28;20222;-74
2023/10/21 09:53:38;;;;;;;0.90;0.90;;;16.40;99.90;;;;;;4975131;28;20179;-76
2023/10/21 09:56:07;;;;;;;0.90;0.90;;;16.40;99.90;;;;;;4960236;28;20197;-76
2023/10/21 09:58:35;;;;;;;0.90;0.90;;;16.70;99.90;;;;;;4978243;28;20179;-76
2023/10/21 10:01:11;;;;;;;0.90;0.90;;;16.90;99.90;;;;;;4975853;28;20180;-76
2023/10/21 10:03:40;;;;;;;0.90;0.90;;;19.00;99.90;;;;;;4959367;28;20195;-79
2023/10/21 10:06:09;;;;;;;0.90;0.90;;;23.40;99.90;;;;;;4974618;28;20195;-74
2023/10/21 10:08:37;;;;;;;0.90;0.90;;;25.90;99.90;;;;;;4957406;28;20301;-74
2023/10/21 10:11:12;;;;;;;1.00;1.00;;;27.30;99.90;;;;;;4954312;28;20199;-74
2023/10/21 10:13:42;;;;;;;1.10;1.10;;;25.80;99.90;;;;;;4955261;29;20273;-74
2023/10/21 10:16:19;;;;;;;1.10;1.10;;;26.10;99.90;;;;;;4947573;28;20642;-73
2023/10/21 10:18:50;;;;;;;1.08;1.08;;;25.60;99.90;;;;;;4950752;28;20202;-74
2023/10/21 10:21:18;;;;;;;1.10;1.10;;;26.00;99.90;;;;;;4952740;29;20235;-74
2023/10/21 10:23:50;;;;;;;1.10;1.10;;;26.20;99.90;;;;;;4951254;29;20311;-74
2023/10/21 10:26:38;;;;;;;1.13;1.13;;;26.90;99.90;;;;;;4950610;28;20215;-74
2023/10/21 10:29:19;;;;;;;1.30;1.30;;;25.60;99.90;;;;;;4948055;29;20203;-74
2023/10/21 10:31:47;;;;;;;1.20;1.20;;;25.50;99.90;;;;;;4950431;28;20187;-73
2023/10/21 10:34:17;;;;;;;1.30;1.30;;;24.20;99.90;;;;;;4950667;29;20691;-74
2023/10/21 10:36:44;;;;;;;1.13;1.13;;;24.50;99.90;;;;;;4955810;28;20547;-73
2023/10/21 10:39:39;;;;;;;1.20;1.20;;;26.00;99.90;;;;;;4950641;28;20221;-74
2023/10/21 10:42:07;;;;;;;1.30;1.30;;;26.50;99.90;;;;;;4949022;28;20196;-74
2023/10/21 10:44:34;;;;;;;1.10;1.10;;;26.80;99.90;;;;;;4934468;28;20663;-75
2023/10/21 10:47:04;;;;;;;1.13;1.13;;;25.40;99.90;;;;;;4950654;28;20715;-74
2023/10/21 10:49:59;;;;;;;1.20;1.20;;;26.20;99.90;;;;;;4948060;28;20216;-74
2023/10/21 10:52:28;;;;;;;1.17;1.17;;;25.30;99.90;;;;;;4948560;28;20703;-74
2023/10/21 10:54:55;;;;;;;1.20;1.20;;;24.60;99.90;;;;;;4927507;28;20230;-76
2023/10/21 10:57:22;;;;;;;1.27;1.27;;;24.00;99.90;;;;;;4952986;28;20206;-74
2023/10/21 10:59:50;;;;;;;1.20;1.20;;;24.80;99.90;;;;;;4950449;28;20214;-74
2023/10/21 11:02:17;;;;;;;1.30;1.30;;;22.50;99.90;;;;;;4951994;28;20668;-74
2023/10/21 11:04:50;;;;;;;1.30;1.30;;;20.50;99.90;;;;;;4947933;29;20290;-74
2023/10/21 11:07:21;;;;;;;1.20;1.20;;;20.70;99.90;;;;;;4952447;28;20599;-74
2023/10/21 11:09:59;;;;;;;1.20;1.20;;;21.20;99.90;;;;;;4948215;29;20643;-73
2023/10/21 11:12:27;;;;;;;1.20;1.20;;;22.30;99.90;;;;;;4940958;29;20190;-74
2023/10/21 11:14:54;;;;;;;1.20;1.20;;;23.70;99.90;;;;;;4950547;28;20224;-74
2023/10/21 11:17:21;;;;;;;1.30;1.30;;;21.70;99.90;;;;;;4950308;28;20235;-74
2023/10/21 11:19:48;;;;;;;1.30;1.30;;;20.40;99.90;;;;;;4937414;28;20310;-74
2023/10/21 11:22:26;;;;;;;1.20;1.20;;;21.20;99.90;;;;;;4950106;28;20269;-73
2023/10/21 11:24:53;;;;;;;1.30;1.30;;;21.70;99.90;;;;;;4947941;28;20260;-73
2023/10/21 11:27:22;;;;;;;1.30;1.30;;;21.60;99.90;;;;;;4949481;28;20639;-73
2023/10/21 11:29:52;;;;;;;1.20;1.20;;;23.40;99.90;;;;;;4945668;28;20219;-73
2023/10/21 11:32:31;;;;;;;1.35;1.35;;;23.80;99.90;;;;;;4949904;28;20203;-74
2023/10/21 11:35:05;;;;;;;1.20;1.20;;;23.20;99.90;;;;;;4950937;28;20234;-73
2023/10/21 11:37:32;;;;;;;1.20;1.20;;;23.00;99.90;;;;;;4948981;28;20620;-73
2023/10/21 11:40:00;;;;;;;1.30;1.30;;;21.30;99.90;;;;;;4937035;29;20203;-74
2023/10/21 11:42:27;;;;;;;1.20;1.20;;;22.40;99.90;;;;;;4949601;28;20652;-73
2023/10/21 11:45:00;;;;;;;1.20;1.20;;;22.90;99.90;;;;;;4948966;29;20345;-73
2023/10/21 11:47:30;;;;;;;1.40;1.40;;;23.10;99.90;;;;;;4948601;28;20285;-73
2023/10/21 11:49:57;;;;;;;1.25;1.25;;;21.90;99.90;;;;;;4948628;28;20198;-75
2023/10/21 11:52:26;;;;;;;1.20;1.20;;;21.60;99.90;;;;;;4953939;28;20198;-73
2023/10/21 12:06:31;;;;;;;1.40;1.40;;;20.80;99.90;;;;;;4953551;28;20201;-74
2023/10/21 12:11:45;;;;;;;1.40;1.40;;;19.70;99.90;;;;;;4949635;28;20253;-73
2023/10/21 12:33:08;;;;;;;2.65;1.92;;;19.10;99.90;;;;;;4948738;28;20262;-73
2023/10/21 12:35:52;;;;;;;4.13;2.08;;;19.10;99.90;;;;;;4949226;28;20222;-73
2023/10/21 12:38:31;;;;;;;2.10;2.00;;;19.10;99.90;;;;;;4950729;28;20187;-73
2023/10/21 12:41:20;;;;;;;1.90;1.70;;;18.70;99.90;;;;;;4948457;28;20199;-73
2023/10/21 12:43:48;;;;;;;2.00;1.60;;;18.90;99.90;;;;;;4938283;29;20195;-73
2023/10/21 12:46:18;;;;;;;3.00;1.55;;;19.10;99.90;;;;;;4948840;28;20233;-73
2023/10/21 12:48:52;;;;;;;1.92;1.80;;;18.70;99.90;;;;;;4948414;28;20191;-73
2023/10/21 12:51:26;;;;;;;1.60;1.50;;;18.70;99.90;;;;;;4952354;28;20540;-73
2023/10/21 12:53:53;;;;;;;1.50;1.40;;;18.50;99.90;;;;;;4937395;29;20199;-73
2023/10/21 12:56:40;;;;;;;4.22;2.10;;;18.50;99.90;;;;;;4954070;28;20210;-73
2023/10/21 12:59:07;;;;;;;1.80;1.70;;;18.20;99.90;;;;;;4953494;28;20553;-74
2023/10/21 13:01:35;;;;;;;1.63;1.52;;;18.20;99.90;;;;;;4953595;28;20674;-72
2023/10/21 13:04:02;;;;;;;1.73;1.60;;;18.10;99.90;;;;;;4952966;28;20281;-72
2023/10/21 13:06:29;;;;;;;1.80;1.70;;;17.90;99.90;;;;;;4954855;28;20722;-73
2023/10/21 13:08:56;;;;;;;3.15;1.60;;;17.90;99.90;;;;;;4952968;28;20584;-73
2023/10/21 13:11:24;;;;;;;1.60;1.50;;;17.90;99.90;;;;;;4951412;28;20195;-73
2023/10/21 13:13:54;;;;;;;2.25;1.40;;;17.90;99.90;;;;;;4934758;28;20210;-73
2023/10/21 13:16:21;;;;;;;1.88;1.63;;;17.90;99.90;;;;;;4950737;28;20243;-73
2023/10/21 13:18:48;;;;;;;1.65;1.55;;;17.60;99.90;;;;;;4952850;28;20294;-72
2023/10/21 13:21:18;;;;;;;2.85;1.98;;;17.70;99.90;;;;;;4935724;28;20688;-72
2023/10/21 13:23:45;;;;;;;3.22;1.42;;;17.40;99.90;;;;;;4954603;28;20206;-72
2023/10/21 13:26:12;;;;;;;4.53;1.60;;;17.50;99.90;;;;;;4953385;28;20202;-72
2023/10/21 13:28:40;;;;;;;2.10;1.63;;;17.70;99.90;;;;;;4961814;28;20190;-79
2023/10/21 13:31:07;;;;;;;1.58;1.48;;;18.00;99.90;;;;;;4967931;28;20195;-78
2023/10/21 13:33:34;;;;;;;1.35;1.27;;;18.10;99.90;;;;;;4970180;28;20226;-79
2023/10/21 13:36:01;;;;;;;2.60;1.80;;;18.00;99.90;;;;;;4965909;28;20432;-79